Time;durP1;ratioP1;P1;durP2;ratioP2;P2;SDS_P1;SDS_P2;PMS_P1;PMS_P2;Temp;Humidity;BMP_temperature;BMP_pressure;BME280_temperature;BME280_humidity;BME280_pressure;Samples;Min_cycle;Max_cycle;Signal;HPM_P1;HPM_P2
2022/11/05 00:09:29;;;;;;;;;;;9.50;99.90;;;;;;1879949;76;20193;-74
2022/11/05 00:17:26;;;;;;;;;;;9.40;99.90;;;;;;1880084;76;20173;-75
2022/11/05 00:19:53;;;;;;;;;;;9.30;99.90;;;;;;1880078;76;20154;-76
2022/11/05 00:25:15;;;;;;;;;;;9.40;99.90;;;;;;1880070;76;20128;-75
2022/11/05 00:27:49;;;;;;;;;;;9.30;99.90;;;;;;1880004;76;20121;-75
2022/11/05 00:30:17;;;;;;;;;;;9.40;99.90;;;;;;1896437;75;20155;-76
2022/11/05 00:32:45;;;;;;;;;;;9.40;99.90;;;;;;1879959;76;20109;-75
2022/11/05 00:35:11;;;;;;;;;;;9.40;99.90;;;;;;1892995;74;20123;-76
2022/11/05 00:37:38;;;;;;;;;;;9.40;99.90;;;;;;1890363;75;20132;-76
2022/11/05 00:40:05;;;;;;;;;;;9.50;99.90;;;;;;1888432;76;20147;-76
2022/11/05 00:45:16;;;;;;;;;;;9.40;99.90;;;;;;1888076;76;20376;-75
2022/11/05 00:50:28;;;;;;;;;;;9.40;99.90;;;;;;1888043;76;20159;-75
2022/11/05 00:52:56;;;;;;;;;;;9.40;99.90;;;;;;1888160;76;20104;-76
2022/11/05 00:55:33;;;;;;;;;;;9.30;99.90;;;;;;1888116;76;20181;-74
2022/11/05 00:58:00;;;;;;;;;;;9.30;99.90;;;;;;1888104;76;20351;-75
2022/11/05 01:00:27;;;;;;;;;;;9.30;99.90;;;;;;1888156;76;20358;-75
2022/11/05 01:02:55;;;;;;;;;;;9.20;99.90;;;;;;1888172;76;20205;-75
2022/11/05 01:05:22;;;;;;;;;;;9.20;99.90;;;;;;1887988;76;20147;-74
2022/11/05 01:07:49;;;;;;;;;;;9.30;99.90;;;;;;1888144;75;20385;-75
2022/11/05 01:10:15;;;;;;;;;;;9.20;99.90;;;;;;1856557;76;20123;-74
2022/11/05 01:12:42;;;;;;;;;;;9.30;99.90;;;;;;1888069;76;20128;-75
2022/11/05 01:15:09;;;;;;;;;;;9.30;99.90;;;;;;1888060;76;20120;-75
2022/11/05 01:17:35;;;;;;;;;;;9.30;99.90;;;;;;1888071;76;20167;-75
2022/11/05 01:20:02;;;;;;;;;;;9.30;99.90;;;;;;1888286;76;20178;-75
2022/11/05 01:22:29;;;;;;;;;;;9.40;99.90;;;;;;1888035;76;20150;-75
2022/11/05 01:24:56;;;;;;;;;;;9.40;99.90;;;;;;1888085;76;20343;-74
2022/11/05 01:27:22;;;;;;;;;;;9.50;99.90;;;;;;1878409;76;20171;-75
2022/11/05 01:29:49;;;;;;;;;;;9.50;99.90;;;;;;1879570;76;20194;-75
2022/11/05 01:32:16;;;;;;;;;;;9.60;99.90;;;;;;1879506;76;20117;-75
2022/11/05 01:34:42;;;;;;;;;;;9.50;99.90;;;;;;1879450;76;20124;-75
2022/11/05 01:37:09;;;;;;;;;;;9.50;99.90;;;;;;1879524;76;20120;-75
2022/11/05 01:39:36;;;;;;;;;;;9.50;99.90;;;;;;1879425;76;20184;-76
2022/11/05 01:42:02;;;;;;;;;;;9.50;99.90;;;;;;1885710;75;20124;-75
2022/11/05 01:44:48;;;;;;;;;;;9.40;99.90;;;;;;1879516;76;20132;-75
2022/11/05 01:47:22;;;;;;;;;;;9.50;99.90;;;;;;1879491;76;20116;-76
2022/11/05 01:49:49;;;;;;;;;;;9.50;99.90;;;;;;1879541;76;20159;-74
2022/11/05 01:52:15;;;;;;;;;;;9.60;99.90;;;;;;1895949;74;20121;-75
2022/11/05 01:54:42;;;;;;;;;;;9.50;99.90;;;;;;1892086;74;20346;-75
2022/11/05 01:57:09;;;;;;;;;;;9.50;99.90;;;;;;1888139;76;20143;-75
2022/11/05 01:59:40;;;;;;;;;;;9.50;99.90;;;;;;1888125;76;20340;-76
2022/11/05 02:02:07;;;;;;;;;;;9.50;99.90;;;;;;1888409;74;20264;-76
2022/11/05 02:04:35;;;;;;;;;;;9.50;99.90;;;;;;1888144;76;20116;-76
2022/11/05 02:07:02;;;;;;;;;;;9.50;99.90;;;;;;1886822;76;20374;-77
2022/11/05 02:09:30;;;;;;;;;;;9.40;99.90;;;;;;1888066;76;20327;-74
2022/11/05 02:11:57;;;;;;;;;;;9.40;99.90;;;;;;1888084;76;20368;-75
2022/11/05 02:14:23;;;;;;;;;;;9.50;99.90;;;;;;1888152;76;20166;-76
2022/11/05 02:16:52;;;;;;;;;;;9.40;99.90;;;;;;1888397;76;20116;-75
2022/11/05 02:19:37;;;;;;;;;;;9.50;99.90;;;;;;1888002;74;20101;-75
2022/11/05 02:22:08;;;;;;;;;;;9.50;99.90;;;;;;1888063;76;20116;-75
2022/11/05 02:24:36;;;;;;;;;;;9.50;99.90;;;;;;1870571;76;20105;-75
2022/11/05 02:27:05;;;;;;;;;;;9.30;99.90;;;;;;1888106;76;20124;-76
2022/11/05 02:29:50;;;;;;;;;;;9.30;99.90;;;;;;1888113;76;20116;-76
2022/11/05 02:32:27;;;;;;;;;;;9.30;99.90;;;;;;1888237;76;20105;-75
2022/11/05 02:35:07;;;;;;;;;;;9.40;99.90;;;;;;1887928;74;20147;-76
2022/11/05 02:37:35;;;;;;;;;;;9.40;99.90;;;;;;1889022;75;20142;-75
2022/11/05 02:40:07;;;;;;;;;;;9.20;99.90;;;;;;1888106;75;20198;-75
2022/11/05 02:42:35;;;;;;;;;;;9.30;99.90;;;;;;1888308;76;20123;-75
2022/11/05 02:45:20;;;;;;;;;;;9.40;99.90;;;;;;1888216;76;20116;-75
2022/11/05 02:47:51;;;;;;;;;;;9.40;99.90;;;;;;1888198;76;20113;-74
2022/11/05 02:50:22;;;;;;;;;;;9.40;99.90;;;;;;1888283;76;20163;-75
2022/11/05 02:52:50;;;;;;;;;;;9.40;99.90;;;;;;1888200;76;20120;-74
2022/11/05 02:55:22;;;;;;;;;;;9.40;99.90;;;;;;1888038;76;20351;-75
2022/11/05 02:57:49;;;;;;;;;;;9.40;99.90;;;;;;1886885;76;20429;-75
2022/11/05 03:00:33;;;;;;;;;;;9.40;99.90;;;;;;1888252;76;20105;-75
2022/11/05 03:03:00;;;;;;;;;;;9.40;99.90;;;;;;1888237;76;20105;-75
2022/11/05 03:05:29;;;;;;;;;;;9.40;99.90;;;;;;1887907;76;20185;-75
2022/11/05 03:07:56;;;;;;;;;;;9.50;99.90;;;;;;1888095;74;20164;-75
2022/11/05 03:10:33;;;;;;;;;;;9.50;99.90;;;;;;1888219;76;20120;-75
2022/11/05 03:13:11;;;;;;;;;;;9.50;99.90;;;;;;1888028;74;20146;-75
2022/11/05 03:15:49;;;;;;;;;;;9.50;99.90;;;;;;1819502;78;20184;-76
2022/11/05 03:18:26;;;;;;;;;;;9.50;99.90;;;;;;1855109;77;20203;-75
2022/11/05 03:20:54;;;;;;;;;;;9.40;99.90;;;;;;1854508;77;20130;-75
2022/11/05 03:23:25;;;;;;;;;;;9.50;99.90;;;;;;1846436;76;20173;-76
2022/11/05 03:25:59;;;;;;;;;;;9.50;99.90;;;;;;1861298;76;20148;-75
2022/11/05 03:28:27;;;;;;;;;;;9.50;99.90;;;;;;1801385;76;20328;-76
2022/11/05 03:30:54;;;;;;;;;;;9.50;99.90;;;;;;1858936;75;20115;-74
2022/11/05 03:33:21;;;;;;;;;;;9.50;99.90;;;;;;1855682;77;20143;-75
2022/11/05 03:35:50;;;;;;;;;;;9.50;99.90;;;;;;1855642;77;20197;-75
2022/11/05 03:38:18;;;;;;;;;;;9.50;99.90;;;;;;1855727;77;20147;-76
2022/11/05 03:40:45;;;;;;;;;;;9.40;99.90;;;;;;1855749;77;20342;-75
2022/11/05 03:43:11;;;;;;;;;;;9.40;99.90;;;;;;1853314;76;20118;-76
2022/11/05 03:45:40;;;;;;;;;;;9.30;99.90;;;;;;1855764;77;20413;-75
2022/11/05 03:48:07;;;;;;;;;;;9.20;99.90;;;;;;1855692;77;20134;-76
2022/11/05 03:50:36;;;;;;;;;;;9.30;99.90;;;;;;1855668;77;20319;-75
2022/11/05 03:53:04;;;;;;;;;;;9.30;99.90;;;;;;1861632;77;20372;-75
2022/11/05 03:55:32;;;;;;;;;;;9.30;99.90;;;;;;1860659;77;20121;-75
2022/11/05 03:57:59;;;;;;;;;;;9.40;99.90;;;;;;1861969;77;20118;-76
2022/11/05 04:00:27;;;;;;;;;;;9.40;99.90;;;;;;1861925;77;20167;-75
2022/11/05 04:02:54;;;;;;;;;;;9.50;99.90;;;;;;1861881;77;20144;-74
2022/11/05 04:05:21;;;;;;;;;;;9.50;99.90;;;;;;1861917;77;20102;-76
2022/11/05 04:13:26;;;;;;;;;;;9.60;99.90;;;;;;1861926;77;20222;-76
2022/11/05 04:18:38;;;;;;;;;;;9.40;99.90;;;;;;1861972;77;20239;-75
2022/11/05 04:24:08;;;;;;;;;;;9.40;99.90;;;;;;1861964;77;20184;-75
2022/11/05 04:26:42;;;;;;;;;;;9.40;99.90;;;;;;1861941;77;20397;-74
2022/11/05 04:31:53;;;;;;;;;;;9.40;99.90;;;;;;1861958;77;20255;-75
2022/11/05 04:34:24;;;;;;;;;;;9.40;99.90;;;;;;1861970;77;20118;-75
2022/11/05 04:36:49;;;;;;;;;;;9.40;99.90;;;;;;1859016;76;20161;-75
2022/11/05 04:39:16;;;;;;;;;;;9.40;99.90;;;;;;1855706;77;20118;-77
2022/11/05 04:41:44;;;;;;;;;;;9.40;99.90;;;;;;1855785;77;20114;-76
2022/11/05 04:44:10;;;;;;;;;;;9.40;99.90;;;;;;1855730;77;20103;-76
2022/11/05 04:46:37;;;;;;;;;;;9.50;99.90;;;;;;1855725;77;20362;-76
2022/11/05 04:49:04;;;;;;;;;;;9.40;99.90;;;;;;1855716;77;20107;-77
2022/11/05 04:51:31;;;;;;;;;;;9.30;99.90;;;;;;1855777;77;20107;-77
2022/11/05 04:53:57;;;;;;;;;;;9.10;99.90;;;;;;1855804;77;20103;-77
2022/11/05 04:56:24;;;;;;;;;;;9.00;99.90;;;;;;1855695;77;20102;-77
2022/11/05 04:58:51;;;;;;;;;;;9.00;99.90;;;;;;1854621;77;20111;-77
2022/11/05 05:01:18;;;;;;;;;;;9.10;99.90;;;;;;1888131;74;20112;-77
2022/11/05 05:03:48;;;;;;;;;;;9.20;99.90;;;;;;1889809;74;20136;-76
2022/11/05 05:06:15;;;;;;;;;;;9.40;99.90;;;;;;1898240;74;20156;-75
2022/11/05 05:08:41;;;;;;;;;;;9.30;99.90;;;;;;1890761;74;20147;-74
2022/11/05 05:11:09;;;;;;;;;;;9.30;99.90;;;;;;1885923;75;20276;-76
2022/11/05 05:13:36;;;;;;;;;;;9.40;99.90;;;;;;1897420;74;20169;-74
2022/11/05 05:16:09;;;;;;;;;;;9.30;99.90;;;;;;1904390;74;20209;-76
2022/11/05 05:18:35;;;;;;;;;;;9.30;99.90;;;;;;1895337;74;20340;-76
2022/11/05 05:23:47;;;;;;;;;;;9.10;99.90;;;;;;1892205;75;20125;-76
2022/11/05 05:26:14;;;;;;;;;;;9.10;99.90;;;;;;1904013;74;20336;-76
2022/11/05 05:28:41;;;;;;;;;;;9.10;99.90;;;;;;1888793;73;20360;-76
2022/11/05 05:31:08;;;;;;;;;;;9.10;99.90;;;;;;1898265;73;20123;-75
2022/11/05 05:33:34;;;;;;;;;;;9.10;99.90;;;;;;1886202;74;20203;-75
2022/11/05 05:36:01;;;;;;;;;;;9.10;99.90;;;;;;1885825;75;20112;-75
2022/11/05 05:38:28;;;;;;;;;;;9.10;99.90;;;;;;1894887;74;20175;-75
2022/11/05 05:40:58;;;;;;;;;;;9.10;99.90;;;;;;1887065;75;20178;-75
2022/11/05 05:43:27;;;;;;;;;;;9.10;99.90;;;;;;1895306;74;20128;-76
2022/11/05 05:45:54;;;;;;;;;;;9.10;99.90;;;;;;1887934;74;20189;-75
2022/11/05 05:48:20;;;;;;;;;;;9.20;99.90;;;;;;1889517;75;20105;-75
2022/11/05 05:50:47;;;;;;;;;;;9.20;99.90;;;;;;1893806;74;20175;-75
2022/11/05 05:53:14;;;;;;;;;;;9.10;99.90;;;;;;1884018;73;20328;-77
2022/11/05 05:55:40;;;;;;;;;;;9.30;99.90;;;;;;1890736;75;20248;-76
2022/11/05 05:58:07;;;;;;;;;;;9.40;99.90;;;;;;1898439;74;20365;-75
2022/11/05 06:00:34;;;;;;;;;;;9.40;99.90;;;;;;1886637;74;20156;-76
2022/11/05 06:03:01;;;;;;;;;;;9.40;99.90;;;;;;1899389;74;20332;-76
2022/11/05 06:05:28;;;;;;;;;;;9.30;99.90;;;;;;1896800;74;20210;-76
2022/11/05 06:07:56;;;;;;;;;;;9.20;99.90;;;;;;1895410;74;20123;-76
2022/11/05 06:10:23;;;;;;;;;;;9.20;99.90;;;;;;1894577;74;20197;-75
2022/11/05 06:12:50;;;;;;;;;;;9.30;99.90;;;;;;1896970;74;20154;-74
2022/11/05 06:15:17;;;;;;;;;;;9.20;99.90;;;;;;1884686;74;20128;-75
2022/11/05 06:17:43;;;;;;;;;;;9.10;99.90;;;;;;1898139;74;20201;-74
2022/11/05 06:20:11;;;;;;;;;;;9.00;99.90;;;;;;1903671;74;20341;-74
2022/11/05 06:22:37;;;;;;;;;;;9.20;99.90;;;;;;1896973;74;20206;-74
2022/11/05 06:25:05;;;;;;;;;;;9.30;99.90;;;;;;1895646;74;20128;-75
2022/11/05 06:27:34;;;;;;;;;;;9.40;99.90;;;;;;1896610;74;20124;-74
2022/11/05 06:30:02;;;;;;;;;;;9.40;99.90;;;;;;1898703;74;20121;-75
2022/11/05 06:32:30;;;;;;;;;;;9.40;99.90;;;;;;1891547;74;20425;-75
2022/11/05 06:34:57;;;;;;;;;;;9.40;99.90;;;;;;1899012;73;20112;-75
2022/11/05 06:37:23;;;;;;;;;;;9.40;99.90;;;;;;1892072;74;20141;-75
2022/11/05 06:39:50;;;;;;;;;;;9.30;99.90;;;;;;1895356;75;20122;-75
2022/11/05 06:42:17;;;;;;;;;;;9.40;99.90;;;;;;1895546;75;20160;-75
2022/11/05 06:44:43;;;;;;;;;;;9.50;99.90;;;;;;1890083;75;20120;-75
2022/11/05 06:47:10;;;;;;;;;;;9.50;99.90;;;;;;1889386;75;20187;-76
2022/11/05 06:49:37;;;;;;;;;;;9.50;99.90;;;;;;1887552;74;20151;-75
2022/11/05 06:52:04;;;;;;;;;;;9.50;99.90;;;;;;1892989;74;20363;-76
2022/11/05 06:54:31;;;;;;;;;;;9.50;99.90;;;;;;1901347;74;20157;-76
2022/11/05 06:56:57;;;;;;;;;;;9.60;99.90;;;;;;1898288;74;20357;-76
2022/11/05 06:59:24;;;;;;;;;;;9.60;99.90;;;;;;1901237;74;20148;-75
2022/11/05 07:01:51;;;;;;;;;;;9.50;99.90;;;;;;1889921;74;20348;-76
2022/11/05 07:04:17;;;;;;;;;;;9.40;99.90;;;;;;1888104;74;20214;-76
2022/11/05 07:06:44;;;;;;;;;;;9.50;99.90;;;;;;1889176;73;20324;-75
2022/11/05 07:09:11;;;;;;;;;;;9.60;99.90;;;;;;1882251;74;20124;-75
2022/11/05 07:11:37;;;;;;;;;;;9.60;99.90;;;;;;1898872;74;20329;-75
2022/11/05 07:14:04;;;;;;;;;;;9.60;99.90;;;;;;1879349;74;20113;-74
2022/11/05 07:16:31;;;;;;;;;;;9.60;99.90;;;;;;1903737;74;20126;-75
2022/11/05 07:18:58;;;;;;;;;;;9.70;99.90;;;;;;1889914;74;20117;-75
2022/11/05 07:21:24;;;;;;;;;;;9.60;99.90;;;;;;1896780;74;20114;-75
2022/11/05 07:23:51;;;;;;;;;;;9.70;99.90;;;;;;1886109;74;20176;-75
2022/11/05 07:26:18;;;;;;;;;;;9.80;99.90;;;;;;1898524;74;20172;-75
2022/11/05 07:28:44;;;;;;;;;;;9.80;99.90;;;;;;1897065;74;20113;-76
2022/11/05 07:31:11;;;;;;;;;;;9.80;99.90;;;;;;1888548;74;20191;-76
2022/11/05 07:33:38;;;;;;;;;;;9.90;99.90;;;;;;1901755;74;20111;-75
2022/11/05 07:36:05;;;;;;;;;;;10.00;99.90;;;;;;1897782;75;20199;-76
2022/11/05 07:38:31;;;;;;;;;;;10.10;99.90;;;;;;1888680;74;20113;-75
2022/11/05 07:41:01;;;;;;;;;;;10.10;99.90;;;;;;1895024;74;20332;-75
2022/11/05 07:43:28;;;;;;;;;;;10.20;99.90;;;;;;1882581;74;20124;-74
2022/11/05 07:45:54;;;;;;;;;;;10.10;99.90;;;;;;1887603;74;20162;-75
2022/11/05 07:48:21;;;;;;;;;;;10.10;99.90;;;;;;1900409;74;20163;-75
2022/11/05 07:50:48;;;;;;;;;;;10.10;99.90;;;;;;1899861;74;20129;-75
2022/11/05 07:53:15;;;;;;;;;;;10.20;99.90;;;;;;1865443;75;20127;-75
2022/11/05 07:55:42;;;;;;;;;;;10.20;99.90;;;;;;1900189;74;20366;-74
2022/11/05 07:58:10;;;;;;;;;;;10.30;99.90;;;;;;1898971;74;20125;-75
2022/11/05 08:00:36;;;;;;;;;;;10.40;99.90;;;;;;1898101;74;20194;-75
2022/11/05 08:03:04;;;;;;;;;;;10.40;99.90;;;;;;1893121;74;20125;-74
2022/11/05 08:05:33;;;;;;;;;;;10.50;99.90;;;;;;1896241;74;20369;-74
2022/11/05 08:07:59;;;;;;;;;;;10.40;99.90;;;;;;1898951;75;20106;-74
2022/11/05 08:10:26;;;;;;;;;;;10.50;99.90;;;;;;1900412;74;20121;-74
2022/11/05 08:12:54;;;;;;;;;;;10.50;99.90;;;;;;1907130;74;20373;-75
2022/11/05 08:15:20;;;;;;;;;;;10.40;99.90;;;;;;1893045;74;20345;-74
2022/11/05 08:17:47;;;;;;;;;;;10.30;99.90;;;;;;1895444;74;20110;-75
2022/11/05 08:20:14;;;;;;;;;;;10.30;99.90;;;;;;1898431;74;20192;-74
2022/11/05 08:22:42;;;;;;;;;;;10.20;99.90;;;;;;1887002;74;20128;-75
2022/11/05 08:25:09;;;;;;;;;;;10.00;99.90;;;;;;1889939;74;20113;-72
2022/11/05 08:27:36;;;;;;;;;;;9.90;99.90;;;;;;1890718;74;20149;-75
2022/11/05 08:30:04;;;;;;;;;;;9.80;99.90;;;;;;1889941;74;20116;-75
2022/11/05 08:32:31;;;;;;;;;;;9.80;99.90;;;;;;1908102;74;20179;-74
2022/11/05 08:34:57;;;;;;;;;;;9.70;99.90;;;;;;1892359;75;20130;-74
2022/11/05 08:37:24;;;;;;;;;;;9.70;99.90;;;;;;1905059;75;20116;-75
2022/11/05 08:39:51;;;;;;;;;;;9.60;99.90;;;;;;1887008;75;20372;-75
2022/11/05 08:42:17;;;;;;;;;;;9.70;99.90;;;;;;1891829;74;20154;-75
2022/11/05 08:44:44;;;;;;;;;;;9.70;99.90;;;;;;1905139;74;20357;-75
2022/11/05 08:47:11;;;;;;;;;;;9.70;99.90;;;;;;1904137;74;20248;-76
2022/11/05 08:49:38;;;;;;;;;;;9.80;99.90;;;;;;1894116;74;20347;-76
2022/11/05 08:52:04;;;;;;;;;;;9.60;99.90;;;;;;1891281;74;20147;-76
2022/11/05 08:54:31;;;;;;;;;;;9.60;99.90;;;;;;1902511;73;20365;-76
2022/11/05 08:56:58;;;;;;;;;;;9.50;99.90;;;;;;1900990;74;20182;-75
2022/11/05 08:59:24;;;;;;;;;;;9.40;99.90;;;;;;1896302;73;20182;-75
2022/11/05 09:01:51;;;;;;;;;;;9.30;99.90;;;;;;1905684;74;20252;-75
2022/11/05 09:04:18;;;;;;;;;;;9.20;99.90;;;;;;1888880;74;20128;-75
2022/11/05 09:06:45;;;;;;;;;;;9.20;99.90;;;;;;1899256;74;20178;-75
2022/11/05 09:09:12;;;;;;;;;;;9.20;99.90;;;;;;1880729;74;20175;-76
2022/11/05 09:11:38;;;;;;;;;;;9.10;99.90;;;;;;1888878;74;20166;-76
2022/11/05 09:14:05;;;;;;;;;;;9.10;99.90;;;;;;1890377;74;20121;-75
2022/11/05 09:16:33;;;;;;;;;;;9.10;99.90;;;;;;1905813;74;20122;-75
2022/11/05 09:19:01;;;;;;;;;;;9.10;99.90;;;;;;1904736;74;20128;-75
2022/11/05 09:21:27;;;;;;;;;;;9.20;99.90;;;;;;1889256;74;20112;-76
2022/11/05 09:23:54;;;;;;;;;;;9.20;99.90;;;;;;1882162;74;20155;-76
2022/11/05 09:26:21;;;;;;;;;;;9.30;99.90;;;;;;1903163;74;20124;-76
2022/11/05 09:28:47;;;;;;;;;;;9.40;99.90;;;;;;1889397;74;20170;-75
2022/11/05 09:31:14;;;;;;;;;;;9.40;99.90;;;;;;1900849;75;20118;-76
2022/11/05 09:33:41;;;;;;;;;;;9.50;99.90;;;;;;1907457;74;20173;-75
2022/11/05 09:36:08;;;;;;;;;;;9.60;99.90;;;;;;1894519;75;20128;-76
2022/11/05 09:38:34;;;;;;;;;;;9.70;99.90;;;;;;1899906;74;20148;-75
2022/11/05 09:41:02;;;;;;;;;;;9.50;99.90;;;;;;1906467;74;20110;-74
2022/11/05 09:43:36;;;;;;;;;;;9.50;99.90;;;;;;1894974;74;20302;-75
2022/11/05 09:46:04;;;;;;;;;;;9.70;99.90;;;;;;1879346;75;20234;-76
2022/11/05 09:48:31;;;;;;;;;;;9.70;99.90;;;;;;1897434;74;20117;-76
2022/11/05 09:50:57;;;;;;;;;;;9.70;99.90;;;;;;1896108;74;20120;-76
2022/11/05 09:53:24;;;;;;;;;;;9.70;99.90;;;;;;1897533;74;20129;-76
2022/11/05 09:55:52;;;;;;;;;;;9.70;99.90;;;;;;1895298;74;20151;-74
2022/11/05 09:58:38;;;;;;;;;;;9.80;99.90;;;;;;1892598;75;20124;-75
2022/11/05 10:01:06;;;;;;;;;;;9.90;99.90;;;;;;1892399;74;20117;-75
2022/11/05 10:03:33;;;;;;;;;;;10.00;99.90;;;;;;1903763;74;20341;-76
2022/11/05 10:06:01;;;;;;;;;;;9.90;99.90;;;;;;1899790;74;20110;-76
2022/11/05 10:08:29;;;;;;;;;;;9.90;99.90;;;;;;1907374;74;20395;-76
2022/11/05 10:11:03;;;;;;;;;;;9.90;99.90;;;;;;1901315;74;20129;-76
2022/11/05 10:13:34;;;;;;;;;;;9.90;99.90;;;;;;1902652;74;20402;-76
2022/11/05 10:16:02;;;;;;;;;;;9.80;99.90;;;;;;1885776;74;20454;-75
2022/11/05 10:18:36;;;;;;;;;;;9.70;99.90;;;;;;1904125;74;20366;-75
2022/11/05 10:21:03;;;;;;;;;;;9.70;99.90;;;;;;1878526;74;20113;-75
2022/11/05 10:23:30;;;;;;;;;;;9.70;99.90;;;;;;1888075;73;20333;-76
2022/11/05 10:26:01;;;;;;;;;;;9.80;99.90;;;;;;1894522;74;20116;-75
2022/11/05 10:28:29;;;;;;;;;;;9.80;99.90;;;;;;1894444;74;20195;-75
2022/11/05 10:31:03;;;;;;;;;;;9.80;99.90;;;;;;1888459;74;20124;-75
2022/11/05 10:33:31;;;;;;;;;;;9.80;99.90;;;;;;1886683;75;20124;-76
2022/11/05 10:35:59;;;;;;;;;;;9.80;99.90;;;;;;1894760;74;20136;-76
2022/11/05 10:38:28;;;;;;;;;;;9.80;99.90;;;;;;1895470;73;20124;-75
2022/11/05 10:41:05;;;;;;;;;;;9.90;99.90;;;;;;1894691;73;20124;-75
2022/11/05 10:43:33;;;;;;;;;;;9.90;99.90;;;;;;1898642;74;20343;-76
2022/11/05 10:46:10;;;;;;;;;;;9.90;99.90;;;;;;1887567;74;20166;-74
2022/11/05 10:48:48;;;;;;;;;;;10.00;99.90;;;;;;1889971;75;20228;-74
2022/11/05 10:51:15;;;;;;;;;;;10.00;99.90;;;;;;1893287;73;20151;-74
2022/11/05 10:53:43;;;;;;;;;;;10.00;99.90;;;;;;1897866;73;20202;-74
2022/11/05 10:56:28;;;;;;;;;;;9.90;99.90;;;;;;1887046;74;20124;-74
2022/11/05 10:58:56;;;;;;;;;;;9.90;99.90;;;;;;1901095;74;20176;-75
2022/11/05 11:01:22;;;;;;;;;;;10.00;99.90;;;;;;1896974;74;20216;-75
2022/11/05 11:03:53;;;;;;;;;;;10.00;99.90;;;;;;1888261;74;20248;-75
2022/11/05 11:06:21;;;;;;;;;;;10.00;99.90;;;;;;1891576;74;20147;-74
2022/11/05 11:08:48;;;;;;;;;;;9.90;99.90;;;;;;1895526;74;20181;-74
2022/11/05 11:11:25;;;;;;;;;;;9.90;99.90;;;;;;1900568;74;20376;-74
2022/11/05 11:13:53;;;;;;;;;;;10.00;99.90;;;;;;1889187;74;20123;-76
2022/11/05 11:16:21;;;;;;;;;;;10.10;99.90;;;;;;1893083;74;20214;-75
2022/11/05 11:18:50;;;;;;;;;;;10.10;99.90;;;;;;1897158;73;20127;-75
2022/11/05 11:21:25;;;;;;;;;;;10.10;99.90;;;;;;1902626;74;20163;-74
2022/11/05 11:23:55;;;;;;;;;;;10.10;99.90;;;;;;1893247;73;20217;-75
2022/11/05 11:26:24;;;;;;;;;;;10.10;99.90;;;;;;1894117;74;20159;-74
2022/11/05 11:28:53;;;;;;;;;;;10.20;99.90;;;;;;1881670;74;20179;-74
2022/11/05 11:31:23;;;;;;;;;;;10.20;99.90;;;;;;1899524;74;20154;-75
2022/11/05 11:33:57;;;;;;;;;;;10.20;99.90;;;;;;1893755;74;20138;-75
2022/11/05 11:36:25;;;;;;;;;;;10.30;99.90;;;;;;1907775;74;20204;-76
2022/11/05 11:38:53;;;;;;;;;;;10.40;99.90;;;;;;1893191;74;20167;-75
2022/11/05 11:41:25;;;;;;;;;;;10.60;99.90;;;;;;1857488;76;20120;-75
2022/11/05 11:43:56;;;;;;;;;;;10.80;99.90;;;;;;1898642;74;20446;-75
2022/11/05 11:46:23;;;;;;;;;;;11.00;99.90;;;;;;1917386;74;20161;-75
2022/11/05 11:48:49;;;;;;;;;;;11.10;99.90;;;;;;1891990;75;20411;-75
2022/11/05 11:51:20;;;;;;;;;;;11.40;99.90;;;;;;1900966;73;20120;-75
2022/11/05 11:53:48;;;;;;;;;;;11.30;99.90;;;;;;1885209;74;20133;-74
2022/11/05 11:56:16;;;;;;;;;;;11.40;99.90;;;;;;1897285;74;20124;-75
2022/11/05 11:58:44;;;;;;;;;;;11.50;99.90;;;;;;1883209;74;20174;-75
2022/11/05 12:01:29;;;;;;;;;;;11.30;99.90;;;;;;1900319;75;20152;-75
2022/11/05 12:03:57;;;;;;;;;;;11.00;99.90;;;;;;1891856;74;20105;-75
2022/11/05 12:06:25;;;;;;;;;;;11.00;99.90;;;;;;1888834;74;20156;-75
2022/11/05 12:08:56;;;;;;;;;;;11.00;99.90;;;;;;1890373;74;20128;-74
2022/11/05 12:11:27;;;;;;;;;;;11.10;99.90;;;;;;1876780;74;20130;-75
2022/11/05 12:14:12;;;;;;;;;;;11.30;99.90;;;;;;1897183;73;20153;-74
2022/11/05 12:16:45;;;;;;;;;;;11.40;99.90;;;;;;1897248;74;20240;-74
2022/11/05 12:19:15;;;;;;;;;;;11.40;99.90;;;;;;1887238;75;20216;-74
2022/11/05 12:22:00;;;;;;;;;;;11.50;99.90;;;;;;1883616;75;20128;-74
2022/11/05 12:24:30;;;;;;;;;;;11.60;99.90;;;;;;1889258;74;20353;-73
2022/11/05 12:26:58;;;;;;;;;;;11.80;99.90;;;;;;1901905;74;20255;-74
2022/11/05 12:29:36;;;;;;;;;;;11.80;99.90;;;;;;1896686;74;20210;-74
2022/11/05 12:32:04;;;;;;;;;;;12.00;99.90;;;;;;1897754;75;20335;-74
2022/11/05 12:34:32;;;;;;;;;;;11.90;99.90;;;;;;1881639;74;20328;-74
2022/11/05 12:37:13;;;;;;;;;;;12.00;99.90;;;;;;1891691;74;20367;-74
2022/11/05 12:39:58;;;;;;;;;;;12.00;99.90;;;;;;1889320;74;20185;-74
2022/11/05 12:42:26;;;;;;;;;;;12.00;99.90;;;;;;1901762;74;20167;-74
2022/11/05 12:45:01;;;;;;;;;;;11.70;99.90;;;;;;1886853;75;20123;-73
2022/11/05 12:47:29;;;;;;;;;;;11.80;99.90;;;;;;1896831;74;20128;-74
2022/11/05 12:49:58;;;;;;;;;;;11.70;99.90;;;;;;1896339;74;20133;-75
2022/11/05 12:52:32;;;;;;;;;;;11.70;99.90;;;;;;1879608;74;20327;-74
2022/11/05 12:55:02;;;;;;;;;;;11.80;99.90;;;;;;1900451;74;20380;-74
2022/11/05 12:57:30;;;;;;;;;;;11.80;99.90;;;;;;1859532;74;20206;-72
2022/11/05 13:00:15;;;;;;;;;;;11.80;99.90;;;;;;1898924;73;20369;-74
2022/11/05 13:02:52;;;;;;;;;;;11.80;99.90;;;;;;1895142;74;20125;-75
2022/11/05 13:05:23;;;;;;;;;;;11.90;99.90;;;;;;1899746;74;20122;-75
2022/11/05 13:07:55;;;;;;;;;;;11.80;99.90;;;;;;1893307;74;20159;-73
2022/11/05 13:10:23;;;;;;;;;;;11.70;99.90;;;;;;1904520;74;20185;-74
2022/11/05 13:12:51;;;;;;;;;;;11.70;99.90;;;;;;1895317;73;20128;-74
2022/11/05 13:15:21;;;;;;;;;;;11.70;99.90;;;;;;1882980;74;20124;-74
2022/11/05 13:17:55;;;;;;;;;;;11.70;99.90;;;;;;1883887;75;20152;-73
2022/11/05 13:20:23;;;;;;;;;;;11.60;99.90;;;;;;1889724;74;20397;-73
2022/11/05 13:22:52;;;;;;;;;;;11.60;99.90;;;;;;1894610;74;20124;-74
2022/11/05 13:25:19;;;;;;;;;;;11.60;99.90;;;;;;1892460;75;20122;-75
2022/11/05 13:28:03;;;;;;;;;;;11.60;99.90;;;;;;1902464;74;20119;-74
2022/11/05 13:30:36;;;;;;;;;;;11.60;99.90;;;;;;1888547;74;20126;-75
2022/11/05 13:33:03;;;;;;;;;;;11.60;99.90;;;;;;1894239;73;20239;-73
2022/11/05 13:35:31;;;;;;;;;;;11.50;99.90;;;;;;1888667;74;20124;-75
2022/11/05 13:40:46;;;;;;;;;;;11.50;99.90;;;;;;1891219;74;20168;-73
2022/11/05 13:43:17;;;;;;;;;;;11.50;99.90;;;;;;1817563;75;20327;-75
2022/11/05 13:46:02;;;;;;;;;;;11.40;99.90;;;;;;1833852;74;20172;-75
2022/11/05 13:48:33;;;;;;;;;;;11.50;99.90;;;;;;1894678;75;20162;-75
2022/11/05 13:51:01;;;;;;;;;;;11.50;99.90;;;;;;1900951;75;20122;-75
2022/11/05 13:53:39;;;;;;;;;;;11.40;99.90;;;;;;1885251;74;20114;-74
2022/11/05 13:56:14;;;;;;;;;;;11.40;99.90;;;;;;1909342;73;20220;-75
2022/11/05 13:58:58;;;;;;;;;;;11.40;99.90;;;;;;1882054;74;20184;-75
2022/11/05 14:01:35;;;;;;;;;;;11.40;99.90;;;;;;1903155;74;20196;-75
2022/11/05 14:04:02;;;;;;;;;;;11.30;99.90;;;;;;1904215;73;20407;-75
2022/11/05 14:06:30;;;;;;;;;;;11.30;99.90;;;;;;1899617;74;20125;-74
2022/11/05 14:09:01;;;;;;;;;;;11.30;99.90;;;;;;1890304;74;20375;-75
2022/11/05 14:11:29;;;;;;;;;;;11.30;99.90;;;;;;1898537;74;20336;-74
2022/11/05 14:13:56;;;;;;;;;;;11.30;99.90;;;;;;1895759;74;20128;-74
2022/11/05 14:16:24;;;;;;;;;;;11.20;99.90;;;;;;1885620;74;20203;-74
2022/11/05 14:18:58;;;;;;;;;;;11.20;99.90;;;;;;1886674;74;20114;-75
2022/11/05 14:21:27;;;;;;;;;;;11.10;99.90;;;;;;1833677;74;20339;-75
2022/11/05 14:23:54;;;;;;;;;;;11.10;99.90;;;;;;1893022;74;20126;-75
2022/11/05 14:26:22;;;;;;;;;;;11.00;99.90;;;;;;1898530;75;20124;-75
2022/11/05 14:29:00;;;;;;;;;;;11.00;99.90;;;;;;1887632;74;20384;-75
2022/11/05 14:31:27;;;;;;;;;;;10.90;99.90;;;;;;1898336;74;20164;-75
2022/11/05 14:33:55;;;;;;;;;;;11.00;99.90;;;;;;1905931;74;20122;-74
2022/11/05 14:36:23;;;;;;;;;;;10.90;99.90;;;;;;1894416;74;20120;-76
2022/11/05 14:38:51;;;;;;;;;;;10.80;99.90;;;;;;1888345;74;20332;-75
2022/11/05 14:41:18;;;;;;;;;;;10.80;99.90;;;;;;1891944;74;20174;-75
2022/11/05 14:43:46;;;;;;;;;;;10.70;99.90;;;;;;1898642;74;20186;-75
2022/11/05 14:46:13;;;;;;;;;;;10.70;99.90;;;;;;1894756;74;20125;-74
2022/11/05 14:48:45;;;;;;;;;;;10.70;99.90;;;;;;1901969;74;20181;-74
2022/11/05 14:51:22;;;;;;;;;;;10.50;99.90;;;;;;1891294;74;20194;-74
2022/11/05 14:53:48;;;;;;;;;;;10.50;99.90;;;;;;1897407;74;20186;-75
2022/11/05 14:56:17;;;;;;;;;;;10.50;99.90;;;;;;1910843;74;20175;-75
2022/11/05 14:58:45;;;;;;;;;;;10.40;99.90;;;;;;1900906;74;20127;-75
2022/11/05 15:01:15;;;;;;;;;;;10.30;99.90;;;;;;1895932;73;20175;-74
2022/11/05 15:03:44;;;;;;;;;;;10.30;99.90;;;;;;1892842;74;20410;-75
2022/11/05 15:06:21;;;;;;;;;;;10.20;99.90;;;;;;1889286;74;20112;-74
2022/11/05 15:08:49;;;;;;;;;;;10.30;99.90;;;;;;1896411;74;20156;-74
2022/11/05 15:11:32;;;;;;;;;;;10.30;99.90;;;;;;1885539;75;20117;-74
2022/11/05 15:14:20;;;;;;;;;;;10.30;99.90;;;;;;1898291;74;20181;-74
2022/11/05 15:16:51;;;;;;;;;;;10.20;99.90;;;;;;1901993;73;20168;-74
2022/11/05 15:19:32;;;;;;;;;;;10.20;99.90;;;;;;1888699;74;20128;-75